sensor_id;sensor_type;location;lat;lon;timestamp;pressure;altitude;pressure_sealevel;temperature;humidity
62789;BME280;66401;42.016;21.454;2023-03-24T00:00:43;98384.16;;;11.92;56.69
62789;BME280;66401;42.016;21.454;2023-03-24T00:03:09;98381.56;;;11.98;56.63
62789;BME280;66401;42.016;21.454;2023-03-24T00:05:35;98386.47;;;11.73;57.06
62789;BME280;66401;42.016;21.454;2023-03-24T00:08:00;98390.09;;;11.72;56.78
62789;BME280;66401;42.016;21.454;2023-03-24T00:10:28;98386.88;;;11.77;57.52
62789;BME280;66401;42.016;21.454;2023-03-24T00:12:55;98386.47;;;11.73;56.82
62789;BME280;66401;42.016;21.454;2023-03-24T00:15:23;98366.34;;;11.54;57.74
62789;BME280;66401;42.016;21.454;2023-03-24T00:17:49;98390.06;;;11.66;57.57
62789;BME280;66401;42.016;21.454;2023-03-24T00:20:16;98391.66;;;11.60;57.60
62789;BME280;66401;42.016;21.454;2023-03-24T00:22:43;98391.66;;;11.60;56.87
62789;BME280;66401;42.016;21.454;2023-03-24T00:25:18;98397.44;;;11.49;57.50
62789;BME280;66401;42.016;21.454;2023-03-24T00:27:44;98393.63;;;11.52;57.49
62789;BME280;66401;42.016;21.454;2023-03-24T00:30:13;98389.06;;;11.60;56.69
62789;BME280;66401;42.016;21.454;2023-03-24T00:32:39;98390.38;;;11.43;57.88
62789;BME280;66401;42.016;21.454;2023-03-24T00:35:07;98386.38;;;11.47;57.52
62789;BME280;66401;42.016;21.454;2023-03-24T00:37:38;98385.56;;;11.46;57.33
62789;BME280;66401;42.016;21.454;2023-03-24T00:40:06;98381.31;;;11.32;57.65
62789;BME280;66401;42.016;21.454;2023-03-24T00:42:37;98386.31;;;11.34;58.86
62789;BME280;66401;42.016;21.454;2023-03-24T00:45:05;98379.06;;;11.23;58.08
62789;BME280;66401;42.016;21.454;2023-03-24T00:47:32;98383.53;;;11.35;57.25
62789;BME280;66401;42.016;21.454;2023-03-24T00:50:08;98389.69;;;11.28;58.64
62789;BME280;66401;42.016;21.454;2023-03-24T00:52:36;98383.88;;;11.26;58.20
62789;BME280;66401;42.016;21.454;2023-03-24T00:55:03;98382.66;;;11.22;58.31
62789;BME280;66401;42.016;21.454;2023-03-24T00:57:31;98382.50;;;11.30;57.71
62789;BME280;66401;42.016;21.454;2023-03-24T01:00:05;98381.09;;;11.34;57.29
62789;BME280;66401;42.016;21.454;2023-03-24T01:02:37;98381.72;;;11.36;57.64
62789;BME280;66401;42.016;21.454;2023-03-24T01:05:03;98376.66;;;11.28;57.63
62789;BME280;66401;42.016;21.454;2023-03-24T01:07:31;98368.16;;;11.12;57.45
62789;BME280;66401;42.016;21.454;2023-03-24T01:09:58;98375.28;;;10.97;58.29
62789;BME280;66401;42.016;21.454;2023-03-24T01:12:33;98376.25;;;11.24;57.36
62789;BME280;66401;42.016;21.454;2023-03-24T01:15:06;98373.38;;;11.12;57.19
62789;BME280;66401;42.016;21.454;2023-03-24T01:17:31;98371.13;;;11.09;57.69
62789;BME280;66401;42.016;21.454;2023-03-24T01:19:59;98368.06;;;10.99;57.74
62789;BME280;66401;42.016;21.454;2023-03-24T01:22:29;98360.91;;;11.01;58.11
62789;BME280;66401;42.016;21.454;2023-03-24T01:24:55;98359.69;;;11.04;58.05
62789;BME280;66401;42.016;21.454;2023-03-24T01:27:21;98355.28;;;11.04;58.22
62789;BME280;66401;42.016;21.454;2023-03-24T01:29:47;98358.94;;;11.10;57.45
62789;BME280;66401;42.016;21.454;2023-03-24T01:32:12;98350.97;;;10.90;58.15
62789;BME280;66401;42.016;21.454;2023-03-24T01:34:38;98350.97;;;10.90;57.33
62789;BME280;66401;42.016;21.454;2023-03-24T01:37:04;98355.78;;;10.86;57.46
62789;BME280;66401;42.016;21.454;2023-03-24T01:39:29;98361.41;;;10.90;58.06
62789;BME280;66401;42.016;21.454;2023-03-24T01:41:55;98358.19;;;10.88;58.22
62789;BME280;66401;42.016;21.454;2023-03-24T01:44:32;98354.78;;;10.87;57.90
62789;BME280;66401;42.016;21.454;2023-03-24T01:46:58;98355.94;;;10.78;58.53
62789;BME280;66401;42.016;21.454;2023-03-24T01:49:36;98355.66;;;10.67;58.30
62789;BME280;66401;42.016;21.454;2023-03-24T01:52:06;98346.16;;;10.52;59.22
62789;BME280;66401;42.016;21.454;2023-03-24T01:54:40;98355.84;;;10.65;58.65
62789;BME280;66401;42.016;21.454;2023-03-24T01:57:19;98358.69;;;10.42;59.77
62789;BME280;66401;42.016;21.454;2023-03-24T01:59:48;98354.94;;;10.51;59.68
62789;BME280;66401;42.016;21.454;2023-03-24T02:02:15;98349.38;;;10.54;58.61
62789;BME280;66401;42.016;21.454;2023-03-24T02:04:46;98368.94;;;10.50;58.22
62789;BME280;66401;42.016;21.454;2023-03-24T02:09:48;98351.53;;;10.51;58.82
62789;BME280;66401;42.016;21.454;2023-03-24T02:12:14;98343.22;;;10.41;58.34
62789;BME280;66401;42.016;21.454;2023-03-24T02:14:40;98360.91;;;10.45;59.09
62789;BME280;66401;42.016;21.454;2023-03-24T02:30:51;98360.16;;;10.30;58.81
62789;BME280;66401;42.016;21.454;2023-03-24T02:44:56;98353.44;;;10.21;58.33
62789;BME280;66401;42.016;21.454;2023-03-24T02:53:14;98353.84;;;10.18;58.92
62789;BME280;66401;42.016;21.454;2023-03-24T02:55:43;98347.41;;;10.14;59.00
62789;BME280;66401;42.016;21.454;2023-03-24T02:58:18;98355.03;;;10.15;59.43
62789;BME280;66401;42.016;21.454;2023-03-24T03:00:51;98355.94;;;10.08;59.49
62789;BME280;66401;42.016;21.454;2023-03-24T03:03:31;98353.28;;;10.01;58.70
62789;BME280;66401;42.016;21.454;2023-03-24T03:08:32;98366.25;;;9.80;59.76
62789;BME280;66401;42.016;21.454;2023-03-24T03:11:01;98372.34;;;9.87;59.50
62789;BME280;66401;42.016;21.454;2023-03-24T03:13:36;98373.78;;;9.89;59.30
62789;BME280;66401;42.016;21.454;2023-03-24T03:16:07;98373.16;;;9.87;59.57
62789;BME280;66401;42.016;21.454;2023-03-24T03:19:50;98373.03;;;9.95;59.45
62789;BME280;66401;42.016;21.454;2023-03-24T03:21:49;98361.94;;;9.87;59.73
62789;BME280;66401;42.016;21.454;2023-03-24T03:24:26;98370.75;;;9.86;60.05
62789;BME280;66401;42.016;21.454;2023-03-24T03:27:01;98379.25;;;9.94;59.25
62789;BME280;66401;42.016;21.454;2023-03-24T03:29:31;98368.00;;;9.94;59.08
62789;BME280;66401;42.016;21.454;2023-03-24T03:32:01;98358.72;;;10.06;58.69
62789;BME280;66401;42.016;21.454;2023-03-24T03:34:41;98371.78;;;10.13;58.64
62789;BME280;66401;42.016;21.454;2023-03-24T03:39:58;98372.28;;;10.01;59.27
62789;BME280;66401;42.016;21.454;2023-03-24T03:42:25;98367.25;;;9.79;59.08
62789;BME280;66401;42.016;21.454;2023-03-24T03:44:51;98376.25;;;9.76;59.79
62789;BME280;66401;42.016;21.454;2023-03-24T03:47:17;98381.44;;;9.76;59.56
62789;BME280;66401;42.016;21.454;2023-03-24T03:49:44;98391.56;;;9.86;59.17
62789;BME280;66401;42.016;21.454;2023-03-24T03:52:10;98378.94;;;9.68;60.42
62789;BME280;66401;42.016;21.454;2023-03-24T03:54:37;98384.53;;;9.50;60.81
62789;BME280;66401;42.016;21.454;2023-03-24T03:57:04;98380.41;;;9.56;60.41
62789;BME280;66401;42.016;21.454;2023-03-24T03:59:33;98390.88;;;9.62;60.21
62789;BME280;66401;42.016;21.454;2023-03-24T04:23:54;98391.91;;;9.46;60.37
62789;BME280;66401;42.016;21.454;2023-03-24T04:34:30;98377.66;;;9.28;60.92
62789;BME280;66401;42.016;21.454;2023-03-24T04:37:02;98386.72;;;9.46;60.59
62789;BME280;66401;42.016;21.454;2023-03-24T04:39:34;98389.75;;;9.35;61.05
62789;BME280;66401;42.016;21.454;2023-03-24T04:42:06;98392.34;;;9.50;61.15
62789;BME280;66401;42.016;21.454;2023-03-24T04:44:32;98401.41;;;9.39;61.39
62789;BME280;66401;42.016;21.454;2023-03-24T04:46:59;98401.94;;;9.35;61.31
62789;BME280;66401;42.016;21.454;2023-03-24T04:49:26;98397.72;;;9.34;61.12
62789;BME280;66401;42.016;21.454;2023-03-24T04:51:52;98398.72;;;9.33;61.35
62789;BME280;66401;42.016;21.454;2023-03-24T04:54:19;98414.50;;;9.31;61.24
62789;BME280;66401;42.016;21.454;2023-03-24T04:56:50;98411.00;;;9.39;61.16
62789;BME280;66401;42.016;21.454;2023-03-24T04:59:17;98418.97;;;9.37;60.69
62789;BME280;66401;42.016;21.454;2023-03-24T05:01:43;98418.19;;;9.37;60.42
62789;BME280;66401;42.016;21.454;2023-03-24T05:04:21;98413.59;;;9.24;60.98
62789;BME280;66401;42.016;21.454;2023-03-24T05:06:46;98424.88;;;9.31;61.27
62789;BME280;66401;42.016;21.454;2023-03-24T05:09:14;98422.28;;;9.31;60.69
62789;BME280;66401;42.016;21.454;2023-03-24T05:11:42;98433.03;;;9.43;60.42
62789;BME280;66401;42.016;21.454;2023-03-24T05:14:08;98419.41;;;9.26;60.44
62789;BME280;66401;42.016;21.454;2023-03-24T05:16:34;98436.63;;;9.57;60.48
62789;BME280;66401;42.016;21.454;2023-03-24T05:18:59;98434.66;;;9.59;60.14
62789;BME280;66401;42.016;21.454;2023-03-24T05:21:26;98431.44;;;9.57;60.47
62789;BME280;66401;42.016;21.454;2023-03-24T05:23:52;98439.19;;;9.71;59.54
62789;BME280;66401;42.016;21.454;2023-03-24T05:26:17;98439.19;;;9.86;59.34
62789;BME280;66401;42.016;21.454;2023-03-24T05:28:43;98438.44;;;9.92;59.96
62789;BME280;66401;42.016;21.454;2023-03-24T05:31:08;98451.63;;;10.06;59.82
62789;BME280;66401;42.016;21.454;2023-03-24T05:33:34;98449.88;;;10.13;58.60
62789;BME280;66401;42.016;21.454;2023-03-24T05:35:59;98449.25;;;10.11;58.40
62789;BME280;66401;42.016;21.454;2023-03-24T05:38:25;98445.75;;;10.03;58.92
62789;BME280;66401;42.016;21.454;2023-03-24T05:40:50;98451.06;;;10.10;59.28
62789;BME280;66401;42.016;21.454;2023-03-24T05:43:16;98447.34;;;10.19;58.86
62789;BME280;66401;42.016;21.454;2023-03-24T05:45:42;98455.44;;;10.10;59.37
62789;BME280;66401;42.016;21.454;2023-03-24T05:48:08;98453.13;;;10.15;60.22
62789;BME280;66401;42.016;21.454;2023-03-24T05:50:33;98456.44;;;10.09;60.10
62789;BME280;66401;42.016;21.454;2023-03-24T05:52:59;98458.66;;;10.12;60.48
62789;BME280;66401;42.016;21.454;2023-03-24T05:55:25;98454.72;;;10.16;59.32
62789;BME280;66401;42.016;21.454;2023-03-24T05:57:51;98454.00;;;10.22;60.11
62789;BME280;66401;42.016;21.454;2023-03-24T06:00:18;98428.69;;;9.94;60.85
62789;BME280;66401;42.016;21.454;2023-03-24T06:02:45;98451.75;;;10.19;60.75
62789;BME280;66401;42.016;21.454;2023-03-24T06:05:11;98450.31;;;10.16;60.23
62789;BME280;66401;42.016;21.454;2023-03-24T06:07:38;98453.16;;;10.21;60.63
62789;BME280;66401;42.016;21.454;2023-03-24T06:10:07;98450.41;;;10.23;60.66
62789;BME280;66401;42.016;21.454;2023-03-24T06:12:34;98454.50;;;10.32;59.97
62789;BME280;66401;42.016;21.454;2023-03-24T06:15:00;98451.28;;;10.30;60.95
62789;BME280;66401;42.016;21.454;2023-03-24T06:17:28;98453.66;;;10.25;60.87
62789;BME280;66401;42.016;21.454;2023-03-24T06:19:54;98458.75;;;10.33;60.90
62789;BME280;66401;42.016;21.454;2023-03-24T06:22:27;98454.88;;;10.29;61.67
62789;BME280;66401;42.016;21.454;2023-03-24T06:24:53;98461.09;;;10.28;62.00
62789;BME280;66401;42.016;21.454;2023-03-24T06:27:21;98467.78;;;10.37;61.75
62789;BME280;66401;42.016;21.454;2023-03-24T06:29:49;98467.16;;;10.35;61.26
62789;BME280;66401;42.016;21.454;2023-03-24T06:32:18;98478.69;;;10.47;60.67
62789;BME280;66401;42.016;21.454;2023-03-24T06:34:44;98470.34;;;10.52;61.63
62789;BME280;66401;42.016;21.454;2023-03-24T06:37:09;98460.41;;;10.62;60.57
62789;BME280;66401;42.016;21.454;2023-03-24T06:39:35;98467.47;;;10.68;60.86
62789;BME280;66401;42.016;21.454;2023-03-24T06:42:00;98472.69;;;10.68;60.43
62789;BME280;66401;42.016;21.454;2023-03-24T06:44:26;98479.97;;;10.79;60.14
62789;BME280;66401;42.016;21.454;2023-03-24T06:46:51;98467.75;;;10.80;60.82
62789;BME280;66401;42.016;21.454;2023-03-24T06:49:17;98478.66;;;10.90;60.30
62789;BME280;66401;42.016;21.454;2023-03-24T06:51:43;98472.28;;;10.93;60.74
62789;BME280;66401;42.016;21.454;2023-03-24T06:54:08;98481.25;;;11.11;60.58
62789;BME280;66401;42.016;21.454;2023-03-24T06:56:33;98475.28;;;11.17;60.69
62789;BME280;66401;42.016;21.454;2023-03-24T06:58:59;98481.72;;;11.22;60.77
62789;BME280;66401;42.016;21.454;2023-03-24T07:01:25;98475.06;;;11.19;59.99
62789;BME280;66401;42.016;21.454;2023-03-24T07:03:51;98475.75;;;11.28;60.28
62789;BME280;66401;42.016;21.454;2023-03-24T07:06:18;98478.53;;;11.26;59.95
62789;BME280;66401;42.016;21.454;2023-03-24T07:08:44;98481.06;;;11.47;60.03
62789;BME280;66401;42.016;21.454;2023-03-24T07:11:10;98482.16;;;11.60;59.14
62789;BME280;66401;42.016;21.454;2023-03-24T07:13:36;98472.53;;;11.60;59.05
62789;BME280;66401;42.016;21.454;2023-03-24T07:16:02;98467.06;;;11.55;59.52
62789;BME280;66401;42.016;21.454;2023-03-24T07:18:28;98468.63;;;11.43;59.63
62789;BME280;66401;42.016;21.454;2023-03-24T07:20:53;98465.44;;;11.47;61.53
62789;BME280;66401;42.016;21.454;2023-03-24T07:23:19;98466.06;;;11.56;61.11
62789;BME280;66401;42.016;21.454;2023-03-24T07:25:45;98448.44;;;11.58;60.50
62789;BME280;66401;42.016;21.454;2023-03-24T07:28:11;98477.34;;;11.98;60.98
62789;BME280;66401;42.016;21.454;2023-03-24T07:30:36;98470.38;;;12.18;59.26
62789;BME280;66401;42.016;21.454;2023-03-24T07:33:03;98453.00;;;12.78;59.34
62789;BME280;66401;42.016;21.454;2023-03-24T07:35:30;98473.47;;;14.37;54.75
62789;BME280;66401;42.016;21.454;2023-03-24T07:37:57;98480.91;;;16.01;48.93
62789;BME280;66401;42.016;21.454;2023-03-24T07:40:22;98481.25;;;16.95;46.69
62789;BME280;66401;42.016;21.454;2023-03-24T07:42:48;98474.06;;;18.01;43.46
62789;BME280;66401;42.016;21.454;2023-03-24T07:45:14;98471.72;;;18.62;42.44
62789;BME280;66401;42.016;21.454;2023-03-24T07:47:43;98461.72;;;18.92;43.40
62789;BME280;66401;42.016;21.454;2023-03-24T07:50:09;98472.22;;;20.89;38.63
62789;BME280;66401;42.016;21.454;2023-03-24T07:52:36;98455.19;;;19.55;40.48
62789;BME280;66401;42.016;21.454;2023-03-24T07:55:01;98460.38;;;20.97;38.91
62789;BME280;66401;42.016;21.454;2023-03-24T07:57:27;98466.00;;;21.42;36.39
62789;BME280;66401;42.016;21.454;2023-03-24T07:59:52;98462.56;;;20.73;38.15
62789;BME280;66401;42.016;21.454;2023-03-24T08:02:19;98447.97;;;20.16;38.75
62789;BME280;66401;42.016;21.454;2023-03-24T08:04:44;98442.22;;;19.32;40.90
62789;BME280;66401;42.016;21.454;2023-03-24T08:07:11;98448.13;;;18.10;43.70
62789;BME280;66401;42.016;21.454;2023-03-24T08:09:40;98438.06;;;17.55;48.02
62789;BME280;66401;42.016;21.454;2023-03-24T08:12:05;98442.19;;;18.02;45.77
62789;BME280;66401;42.016;21.454;2023-03-24T08:14:31;98442.41;;;17.72;45.69
62789;BME280;66401;42.016;21.454;2023-03-24T08:16:56;98426.06;;;17.59;46.70
62789;BME280;66401;42.016;21.454;2023-03-24T08:19:22;98435.63;;;18.17;46.43
62789;BME280;66401;42.016;21.454;2023-03-24T08:21:47;98435.06;;;17.86;47.01
62789;BME280;66401;42.016;21.454;2023-03-24T08:24:13;98424.69;;;17.44;48.51
62789;BME280;66401;42.016;21.454;2023-03-24T08:26:38;98425.41;;;17.28;49.00
62789;BME280;66401;42.016;21.454;2023-03-24T08:29:04;98432.38;;;17.34;48.17
62789;BME280;66401;42.016;21.454;2023-03-24T08:31:34;98422.00;;;16.81;50.23
62789;BME280;66401;42.016;21.454;2023-03-24T08:34:01;98421.50;;;16.60;50.66
62789;BME280;66401;42.016;21.454;2023-03-24T08:36:26;98417.75;;;16.80;50.23
62789;BME280;66401;42.016;21.454;2023-03-24T08:38:53;98414.34;;;16.79;49.53
62789;BME280;66401;42.016;21.454;2023-03-24T08:41:20;98420.16;;;16.81;48.18
62789;BME280;66401;42.016;21.454;2023-03-24T08:43:45;98405.00;;;16.42;48.52
62789;BME280;66401;42.016;21.454;2023-03-24T08:46:11;98415.44;;;16.60;47.91
62789;BME280;66401;42.016;21.454;2023-03-24T08:48:37;98414.16;;;16.51;49.37
62789;BME280;66401;42.016;21.454;2023-03-24T08:51:12;98403.28;;;16.59;48.36
62789;BME280;66401;42.016;21.454;2023-03-24T08:53:39;98397.53;;;16.39;49.97
62789;BME280;66401;42.016;21.454;2023-03-24T08:56:04;98401.34;;;16.43;50.35
62789;BME280;66401;42.016;21.454;2023-03-24T08:58:30;98395.63;;;16.46;49.32
62789;BME280;66401;42.016;21.454;2023-03-24T09:00:55;98394.66;;;16.70;48.35
62789;BME280;66401;42.016;21.454;2023-03-24T09:03:21;98390.75;;;17.08;46.97
62789;BME280;66401;42.016;21.454;2023-03-24T09:05:47;98401.97;;;17.03;46.83
62789;BME280;66401;42.016;21.454;2023-03-24T09:08:15;98396.25;;;17.18;48.76
62789;BME280;66401;42.016;21.454;2023-03-24T09:10:42;98392.59;;;16.96;49.82
62789;BME280;66401;42.016;21.454;2023-03-24T09:13:08;98389.06;;;16.90;47.16
62789;BME280;66401;42.016;21.454;2023-03-24T09:15:34;98388.06;;;16.49;48.72
62789;BME280;66401;42.016;21.454;2023-03-24T09:17:59;98393.63;;;16.29;49.23
62789;BME280;66401;42.016;21.454;2023-03-24T09:20:26;98389.13;;;16.60;48.52
62789;BME280;66401;42.016;21.454;2023-03-24T09:22:51;98383.34;;;16.70;49.40
62789;BME280;66401;42.016;21.454;2023-03-24T09:25:19;98385.03;;;16.87;48.89
62789;BME280;66401;42.016;21.454;2023-03-24T09:27:45;98375.66;;;16.92;47.51
62789;BME280;66401;42.016;21.454;2023-03-24T09:30:13;98382.53;;;16.93;49.18
62789;BME280;66401;42.016;21.454;2023-03-24T09:32:39;98364.75;;;17.23;46.90
62789;BME280;66401;42.016;21.454;2023-03-24T09:35:05;98367.56;;;17.45;46.42
62789;BME280;66401;42.016;21.454;2023-03-24T09:37:34;98356.78;;;17.18;46.67
62789;BME280;66401;42.016;21.454;2023-03-24T09:40:00;98371.94;;;17.39;45.97
62789;BME280;66401;42.016;21.454;2023-03-24T09:42:38;98367.50;;;17.16;45.82
62789;BME280;66401;42.016;21.454;2023-03-24T09:45:17;98363.22;;;17.51;44.51
62789;BME280;66401;42.016;21.454;2023-03-24T09:50:28;98353.88;;;17.31;45.61
62789;BME280;66401;42.016;21.454;2023-03-24T09:52:58;98354.75;;;17.49;44.87
62789;BME280;66401;42.016;21.454;2023-03-24T09:55:27;98355.97;;;17.58;46.20
62789;BME280;66401;42.016;21.454;2023-03-24T09:57:58;98358.13;;;17.61;44.36
62789;BME280;66401;42.016;21.454;2023-03-24T10:00:28;98343.03;;;17.56;45.40
62789;BME280;66401;42.016;21.454;2023-03-24T10:03:12;98335.25;;;17.90;46.21
62789;BME280;66401;42.016;21.454;2023-03-24T10:05:51;98343.59;;;18.32;45.42
62789;BME280;66401;42.016;21.454;2023-03-24T10:08:42;98343.19;;;18.40;44.09
62789;BME280;66401;42.016;21.454;2023-03-24T10:11:12;98346.47;;;18.30;44.29
62789;BME280;66401;42.016;21.454;2023-03-24T10:18:41;98328.78;;;19.91;41.14
62789;BME280;66401;42.016;21.454;2023-03-24T10:21:13;98333.97;;;21.29;36.86
62789;BME280;66401;42.016;21.454;2023-03-24T10:24:05;98330.25;;;23.34;34.44
62789;BME280;66401;42.016;21.454;2023-03-24T10:31:31;98337.28;;;29.18;24.70
62789;BME280;66401;42.016;21.454;2023-03-24T10:33:59;98322.22;;;28.29;25.16
62789;BME280;66401;42.016;21.454;2023-03-24T10:36:25;98317.38;;;29.10;24.51
62789;BME280;66401;42.016;21.454;2023-03-24T10:38:52;98308.75;;;30.34;22.83
62789;BME280;66401;42.016;21.454;2023-03-24T10:41:20;98308.41;;;28.44;24.40
62789;BME280;66401;42.016;21.454;2023-03-24T10:43:46;98307.75;;;30.47;22.28
62789;BME280;66401;42.016;21.454;2023-03-24T10:46:21;98290.13;;;31.98;20.65
62789;BME280;66401;42.016;21.454;2023-03-24T10:48:50;98295.84;;;32.99;19.14
62789;BME280;66401;42.016;21.454;2023-03-24T10:51:24;98283.03;;;32.26;19.88
62789;BME280;66401;42.016;21.454;2023-03-24T10:54:11;98282.97;;;32.02;20.31
62789;BME280;66401;42.016;21.454;2023-03-24T10:56:44;98276.72;;;31.77;19.95
62789;BME280;66401;42.016;21.454;2023-03-24T10:59:26;98273.56;;;32.90;19.48
62789;BME280;66401;42.016;21.454;2023-03-24T11:02:17;98265.69;;;32.36;19.98
62789;BME280;66401;42.016;21.454;2023-03-24T11:04:53;98264.78;;;32.68;19.17
62789;BME280;66401;42.016;21.454;2023-03-24T11:07:22;98261.41;;;31.27;20.46
62789;BME280;66401;42.016;21.454;2023-03-24T11:12:28;98254.00;;;28.74;22.89
62789;BME280;66401;42.016;21.454;2023-03-24T11:17:58;98238.72;;;27.82;22.93
62789;BME280;66401;42.016;21.454;2023-03-24T11:23:08;98221.63;;;28.22;22.53
62789;BME280;66401;42.016;21.454;2023-03-24T11:25:38;98217.69;;;26.34;24.44
62789;BME280;66401;42.016;21.454;2023-03-24T11:28:13;98219.94;;;24.39;26.79
62789;BME280;66401;42.016;21.454;2023-03-24T11:33:22;98213.25;;;23.44;28.36
62789;BME280;66401;42.016;21.454;2023-03-24T11:35:50;98207.78;;;23.25;29.76
62789;BME280;66401;42.016;21.454;2023-03-24T11:38:18;98203.72;;;22.94;30.02
62789;BME280;66401;42.016;21.454;2023-03-24T11:40:58;98191.94;;;22.45;31.08
62789;BME280;66401;42.016;21.454;2023-03-24T11:43:26;98183.97;;;22.45;31.51
62789;BME280;66401;42.016;21.454;2023-03-24T11:46:06;98171.72;;;22.60;31.12
62789;BME280;66401;42.016;21.454;2023-03-24T11:48:45;98174.34;;;22.70;31.68
62789;BME280;66401;42.016;21.454;2023-03-24T11:51:35;98167.16;;;22.70;30.66
62789;BME280;66401;42.016;21.454;2023-03-24T11:54:04;98163.94;;;22.78;31.23
62789;BME280;66401;42.016;21.454;2023-03-24T12:01:36;98148.81;;;22.74;32.09
62789;BME280;66401;42.016;21.454;2023-03-24T12:17:22;98116.47;;;21.77;32.46
62789;BME280;66401;42.016;21.454;2023-03-24T12:25:28;98096.31;;;21.81;33.12
62789;BME280;66401;42.016;21.454;2023-03-24T12:39:10;98064.28;;;21.16;33.90
62789;BME280;66401;42.016;21.454;2023-03-24T12:52:30;98046.81;;;21.46;32.51
62789;BME280;66401;42.016;21.454;2023-03-24T12:55:41;98025.63;;;21.46;32.22
62789;BME280;66401;42.016;21.454;2023-03-24T12:58:03;98029.28;;;21.60;33.94
62789;BME280;66401;42.016;21.454;2023-03-24T13:00:37;98028.53;;;21.54;33.34
62789;BME280;66401;42.016;21.454;2023-03-24T13:03:14;98017.66;;;21.40;33.36
62789;BME280;66401;42.016;21.454;2023-03-24T13:05:49;98013.94;;;21.21;33.70
62789;BME280;66401;42.016;21.454;2023-03-24T13:08:24;98013.44;;;21.45;32.27
62789;BME280;66401;42.016;21.454;2023-03-24T13:11:04;98009.75;;;21.35;32.92
62789;BME280;66401;42.016;21.454;2023-03-24T13:13:36;98002.28;;;21.48;32.88
62789;BME280;66401;42.016;21.454;2023-03-24T13:16:06;98003.84;;;21.59;32.10
62789;BME280;66401;42.016;21.454;2023-03-24T13:18:39;97998.84;;;21.52;33.12
62789;BME280;66401;42.016;21.454;2023-03-24T13:21:16;97987.72;;;21.55;32.00
62789;BME280;66401;42.016;21.454;2023-03-24T13:24:10;97987.94;;;21.59;31.59
62789;BME280;66401;42.016;21.454;2023-03-24T13:29:27;97960.47;;;21.34;31.89
62789;BME280;66401;42.016;21.454;2023-03-24T13:31:56;97981.84;;;21.58;30.87
62789;BME280;66401;42.016;21.454;2023-03-24T13:34:34;97983.72;;;21.63;31.43
62789;BME280;66401;42.016;21.454;2023-03-24T13:37:04;97977.63;;;21.57;32.14
62789;BME280;66401;42.016;21.454;2023-03-24T13:39:33;97972.84;;;21.64;31.71
62789;BME280;66401;42.016;21.454;2023-03-24T13:42:00;97965.72;;;21.55;32.26
62789;BME280;66401;42.016;21.454;2023-03-24T13:44:39;97972.59;;;21.56;30.39
62789;BME280;66401;42.016;21.454;2023-03-24T13:47:10;97956.69;;;21.56;30.82
62789;BME280;66401;42.016;21.454;2023-03-24T13:49:38;97947.75;;;21.31;31.69
62789;BME280;66401;42.016;21.454;2023-03-24T13:52:12;97950.13;;;21.38;31.85
62789;BME280;66401;42.016;21.454;2023-03-24T13:54:45;97937.16;;;21.36;30.93
62789;BME280;66401;42.016;21.454;2023-03-24T13:57:19;97942.41;;;21.47;30.38
62789;BME280;66401;42.016;21.454;2023-03-24T14:08:14;97930.25;;;21.40;29.29
62789;BME280;66401;42.016;21.454;2023-03-24T14:15:52;97931.59;;;21.33;30.31
62789;BME280;66401;42.016;21.454;2023-03-24T14:23:43;97918.09;;;21.19;30.75
62789;BME280;66401;42.016;21.454;2023-03-24T14:26:14;97907.97;;;21.41;30.76
62789;BME280;66401;42.016;21.454;2023-03-24T14:28:54;97907.97;;;21.41;30.38
62789;BME280;66401;42.016;21.454;2023-03-24T14:31:22;97906.66;;;21.39;30.42
62789;BME280;66401;42.016;21.454;2023-03-24T14:38:56;97901.69;;;21.27;31.83
62789;BME280;66401;42.016;21.454;2023-03-24T14:41:29;97894.78;;;21.16;31.04
62789;BME280;66401;42.016;21.454;2023-03-24T14:43:57;97888.19;;;21.08;32.10
62789;BME280;66401;42.016;21.454;2023-03-24T14:46:43;97890.53;;;21.20;30.34
62789;BME280;66401;42.016;21.454;2023-03-24T14:51:51;97885.75;;;21.32;30.88
62789;BME280;66401;42.016;21.454;2023-03-24T14:54:38;97883.94;;;21.33;29.08
62789;BME280;66401;42.016;21.454;2023-03-24T14:57:07;97874.41;;;21.27;29.35
62789;BME280;66401;42.016;21.454;2023-03-24T14:59:40;97874.66;;;21.20;27.84
62789;BME280;66401;42.016;21.454;2023-03-24T15:02:32;97873.06;;;21.19;28.94
62789;BME280;66401;42.016;21.454;2023-03-24T15:08:14;97865.72;;;20.96;29.85
62789;BME280;66401;42.016;21.454;2023-03-24T15:10:47;97860.44;;;20.91;29.75
62789;BME280;66401;42.016;21.454;2023-03-24T15:15:55;97859.63;;;20.90;30.39
62789;BME280;66401;42.016;21.454;2023-03-24T15:18:21;97855.94;;;20.96;30.67
62789;BME280;66401;42.016;21.454;2023-03-24T15:20:48;97854.34;;;20.90;31.00
62789;BME280;66401;42.016;21.454;2023-03-24T15:23:23;97858.31;;;20.93;31.36
62789;BME280;66401;42.016;21.454;2023-03-24T15:25:49;97857.00;;;20.80;31.12
62789;BME280;66401;42.016;21.454;2023-03-24T15:28:26;97859.38;;;20.86;30.56
62789;BME280;66401;42.016;21.454;2023-03-24T15:30:54;97851.72;;;20.80;29.73
62789;BME280;66401;42.016;21.454;2023-03-24T15:33:21;97856.72;;;20.81;31.42
62789;BME280;66401;42.016;21.454;2023-03-24T15:35:56;97851.22;;;20.68;32.04
62789;BME280;66401;42.016;21.454;2023-03-24T15:38:32;97852.78;;;20.69;31.30
62789;BME280;66401;42.016;21.454;2023-03-24T15:41:01;97839.59;;;20.58;30.81
62789;BME280;66401;42.016;21.454;2023-03-24T15:43:27;97843.00;;;20.59;30.58
62789;BME280;66401;42.016;21.454;2023-03-24T15:45:55;97850.69;;;20.55;31.46
62789;BME280;66401;42.016;21.454;2023-03-24T15:48:23;97851.50;;;20.56;31.66
62789;BME280;66401;42.016;21.454;2023-03-24T15:53:28;97847.78;;;20.47;31.28
62789;BME280;66401;42.016;21.454;2023-03-24T15:58:53;97849.38;;;20.43;32.62
62789;BME280;66401;42.016;21.454;2023-03-24T16:01:24;97847.22;;;20.35;32.96